sensor_id;sensor_type;location;lat;lon;timestamp;temperature;humidity
4725;DHT22;2376;53.544;10.226;2022-10-01T00:02:10;11.50;99.90
4725;DHT22;2376;53.544;10.226;2022-10-01T00:04:37;11.50;99.90
4725;DHT22;2376;53.544;10.226;2022-10-01T00:07:05;11.60;99.90
4725;DHT22;2376;53.544;10.226;2022-10-01T00:09:35;11.60;99.90
4725;DHT22;2376;53.544;10.226;2022-10-01T00:12:03;11.50;99.90
4725;DHT22;2376;53.544;10.226;2022-10-01T00:14:30;11.60;99.90
4725;DHT22;2376;53.544;10.226;2022-10-01T00:16:56;11.60;99.90
4725;DHT22;2376;53.544;10.226;2022-10-01T00:19:23;11.50;99.90
4725;DHT22;2376;53.544;10.226;2022-10-01T00:21:49;11.50;99.90
4725;DHT22;2376;53.544;10.226;2022-10-01T00:24:16;11.50;99.90
4725;DHT22;2376;53.544;10.226;2022-10-01T00:26:43;11.50;99.90
4725;DHT22;2376;53.544;10.226;2022-10-01T00:29:13;11.50;99.90
4725;DHT22;2376;53.544;10.226;2022-10-01T00:31:41;11.50;99.90
4725;DHT22;2376;53.544;10.226;2022-10-01T00:34:10;11.50;99.90
4725;DHT22;2376;53.544;10.226;2022-10-01T00:36:38;11.50;99.90
4725;DHT22;2376;53.544;10.226;2022-10-01T00:39:05;11.50;99.90
4725;DHT22;2376;53.544;10.226;2022-10-01T00:41:33;11.50;99.90
4725;DHT22;2376;53.544;10.226;2022-10-01T00:44:01;11.50;99.90
4725;DHT22;2376;53.544;10.226;2022-10-01T00:46:35;11.50;99.90
4725;DHT22;2376;53.544;10.226;2022-10-01T00:49:07;11.50;99.90
4725;DHT22;2376;53.544;10.226;2022-10-01T00:51:37;11.40;99.90
4725;DHT22;2376;53.544;10.226;2022-10-01T00:54:09;11.40;99.90
4725;DHT22;2376;53.544;10.226;2022-10-01T00:56:37;11.40;99.90
4725;DHT22;2376;53.544;10.226;2022-10-01T00:59:04;11.40;99.90
4725;DHT22;2376;53.544;10.226;2022-10-01T01:01:34;11.40;99.90
4725;DHT22;2376;53.544;10.226;2022-10-01T01:04:01;11.40;99.90
4725;DHT22;2376;53.544;10.226;2022-10-01T01:06:28;11.40;99.90
4725;DHT22;2376;53.544;10.226;2022-10-01T01:08:55;11.40;99.90
4725;DHT22;2376;53.544;10.226;2022-10-01T01:11:27;11.40;99.90
4725;DHT22;2376;53.544;10.226;2022-10-01T01:14:01;11.40;99.90
4725;DHT22;2376;53.544;10.226;2022-10-01T01:16:36;11.40;99.90
4725;DHT22;2376;53.544;10.226;2022-10-01T01:19:09;11.40;99.90
4725;DHT22;2376;53.544;10.226;2022-10-01T01:21:41;11.40;99.90
4725;DHT22;2376;53.544;10.226;2022-10-01T01:24:43;11.30;99.90
4725;DHT22;2376;53.544;10.226;2022-10-01T01:27:30;11.40;99.90
4725;DHT22;2376;53.544;10.226;2022-10-01T01:30:03;11.40;99.90
4725;DHT22;2376;53.544;10.226;2022-10-01T01:32:38;11.30;99.90
4725;DHT22;2376;53.544;10.226;2022-10-01T01:35:08;11.30;99.90
4725;DHT22;2376;53.544;10.226;2022-10-01T01:37:39;11.40;99.90
4725;DHT22;2376;53.544;10.226;2022-10-01T01:40:08;11.30;99.90
4725;DHT22;2376;53.544;10.226;2022-10-01T01:42:38;11.30;99.90
4725;DHT22;2376;53.544;10.226;2022-10-01T01:45:10;11.30;99.90
4725;DHT22;2376;53.544;10.226;2022-10-01T01:47:41;11.20;99.90
4725;DHT22;2376;53.544;10.226;2022-10-01T01:50:09;11.30;99.90
4725;DHT22;2376;53.544;10.226;2022-10-01T01:52:38;11.20;99.90
4725;DHT22;2376;53.544;10.226;2022-10-01T01:55:07;11.30;99.90
4725;DHT22;2376;53.544;10.226;2022-10-01T01:57:36;11.30;99.90
4725;DHT22;2376;53.544;10.226;2022-10-01T02:00:05;11.30;99.90
4725;DHT22;2376;53.544;10.226;2022-10-01T02:02:34;11.30;99.90
4725;DHT22;2376;53.544;10.226;2022-10-01T02:05:05;11.30;99.90
4725;DHT22;2376;53.544;10.226;2022-10-01T02:07:59;11.30;99.90
4725;DHT22;2376;53.544;10.226;2022-10-01T02:10:43;11.30;99.90
4725;DHT22;2376;53.544;10.226;2022-10-01T02:13:23;11.30;99.90
4725;DHT22;2376;53.544;10.226;2022-10-01T02:15:58;11.30;99.90
4725;DHT22;2376;53.544;10.226;2022-10-01T02:18:35;11.30;99.90
4725;DHT22;2376;53.544;10.226;2022-10-01T02:21:09;11.30;99.90
4725;DHT22;2376;53.544;10.226;2022-10-01T02:23:41;11.30;99.90
4725;DHT22;2376;53.544;10.226;2022-10-01T02:26:14;11.30;99.90
4725;DHT22;2376;53.544;10.226;2022-10-01T02:28:43;11.30;99.90
4725;DHT22;2376;53.544;10.226;2022-10-01T02:31:12;11.30;99.90
4725;DHT22;2376;53.544;10.226;2022-10-01T02:33:41;11.30;99.90
4725;DHT22;2376;53.544;10.226;2022-10-01T02:36:10;11.30;99.90
4725;DHT22;2376;53.544;10.226;2022-10-01T02:38:40;11.40;99.90
4725;DHT22;2376;53.544;10.226;2022-10-01T02:41:08;11.30;99.90
4725;DHT22;2376;53.544;10.226;2022-10-01T02:43:39;11.30;99.90
4725;DHT22;2376;53.544;10.226;2022-10-01T02:46:14;11.40;99.90
4725;DHT22;2376;53.544;10.226;2022-10-01T02:48:43;11.30;99.90
4725;DHT22;2376;53.544;10.226;2022-10-01T02:51:21;11.30;99.90
4725;DHT22;2376;53.544;10.226;2022-10-01T02:53:54;11.30;99.90
4725;DHT22;2376;53.544;10.226;2022-10-01T02:56:23;11.30;99.90
4725;DHT22;2376;53.544;10.226;2022-10-01T02:59:06;11.40;99.90
4725;DHT22;2376;53.544;10.226;2022-10-01T03:01:33;11.40;99.90
4725;DHT22;2376;53.544;10.226;2022-10-01T03:04:01;11.40;99.90
4725;DHT22;2376;53.544;10.226;2022-10-01T03:06:27;11.40;99.90
4725;DHT22;2376;53.544;10.226;2022-10-01T03:08:54;11.50;99.90
4725;DHT22;2376;53.544;10.226;2022-10-01T03:11:21;11.50;99.90
4725;DHT22;2376;53.544;10.226;2022-10-01T03:13:48;11.50;99.90
4725;DHT22;2376;53.544;10.226;2022-10-01T03:16:15;11.50;99.90
4725;DHT22;2376;53.544;10.226;2022-10-01T03:18:41;11.50;99.90
4725;DHT22;2376;53.544;10.226;2022-10-01T03:21:09;11.50;99.90
4725;DHT22;2376;53.544;10.226;2022-10-01T03:23:36;11.50;99.90
4725;DHT22;2376;53.544;10.226;2022-10-01T03:26:03;11.50;99.90
4725;DHT22;2376;53.544;10.226;2022-10-01T03:28:29;11.50;99.90
4725;DHT22;2376;53.544;10.226;2022-10-01T03:31:04;11.50;99.90
4725;DHT22;2376;53.544;10.226;2022-10-01T03:33:30;11.50;99.90
4725;DHT22;2376;53.544;10.226;2022-10-01T03:35:57;11.50;99.90
4725;DHT22;2376;53.544;10.226;2022-10-01T03:38:25;11.60;99.90
4725;DHT22;2376;53.544;10.226;2022-10-01T03:40:52;11.60;99.90
4725;DHT22;2376;53.544;10.226;2022-10-01T03:43:19;11.50;99.90
4725;DHT22;2376;53.544;10.226;2022-10-01T03:45:46;11.60;99.90
4725;DHT22;2376;53.544;10.226;2022-10-01T03:48:12;11.60;99.90
4725;DHT22;2376;53.544;10.226;2022-10-01T03:50:39;11.60;99.90
4725;DHT22;2376;53.544;10.226;2022-10-01T03:53:06;11.60;99.90
4725;DHT22;2376;53.544;10.226;2022-10-01T03:55:34;11.60;99.90
4725;DHT22;2376;53.544;10.226;2022-10-01T03:58:00;11.60;99.90
4725;DHT22;2376;53.544;10.226;2022-10-01T04:00:27;11.60;99.90
4725;DHT22;2376;53.544;10.226;2022-10-01T04:02:54;11.60;99.90
4725;DHT22;2376;53.544;10.226;2022-10-01T04:05:21;11.60;99.90
4725;DHT22;2376;53.544;10.226;2022-10-01T04:07:50;11.60;99.90
4725;DHT22;2376;53.544;10.226;2022-10-01T04:10:16;11.60;99.90
4725;DHT22;2376;53.544;10.226;2022-10-01T04:12:44;11.60;99.90
4725;DHT22;2376;53.544;10.226;2022-10-01T04:15:11;11.60;99.90
4725;DHT22;2376;53.544;10.226;2022-10-01T04:17:38;11.60;99.90
4725;DHT22;2376;53.544;10.226;2022-10-01T04:20:05;11.60;99.90
4725;DHT22;2376;53.544;10.226;2022-10-01T04:22:37;11.60;99.90
4725;DHT22;2376;53.544;10.226;2022-10-01T04:25:05;11.60;99.90
4725;DHT22;2376;53.544;10.226;2022-10-01T04:27:32;11.60;99.90
4725;DHT22;2376;53.544;10.226;2022-10-01T04:30:00;11.60;99.90
4725;DHT22;2376;53.544;10.226;2022-10-01T04:32:27;11.60;99.90
4725;DHT22;2376;53.544;10.226;2022-10-01T04:34:53;11.60;99.90
4725;DHT22;2376;53.544;10.226;2022-10-01T04:37:21;11.60;99.90
4725;DHT22;2376;53.544;10.226;2022-10-01T04:39:48;11.60;99.90
4725;DHT22;2376;53.544;10.226;2022-10-01T04:42:15;11.60;99.90
4725;DHT22;2376;53.544;10.226;2022-10-01T04:44:42;11.60;99.90
4725;DHT22;2376;53.544;10.226;2022-10-01T04:47:10;11.60;99.90
4725;DHT22;2376;53.544;10.226;2022-10-01T04:49:36;11.60;99.90
4725;DHT22;2376;53.544;10.226;2022-10-01T04:52:04;11.50;99.90
4725;DHT22;2376;53.544;10.226;2022-10-01T04:54:31;11.60;99.90
4725;DHT22;2376;53.544;10.226;2022-10-01T04:56:57;11.50;99.90
4725;DHT22;2376;53.544;10.226;2022-10-01T04:59:24;11.50;99.90
4725;DHT22;2376;53.544;10.226;2022-10-01T05:01:51;11.50;99.90
4725;DHT22;2376;53.544;10.226;2022-10-01T05:04:19;11.50;99.90
4725;DHT22;2376;53.544;10.226;2022-10-01T05:06:45;11.50;99.90
4725;DHT22;2376;53.544;10.226;2022-10-01T05:09:12;11.50;99.90
4725;DHT22;2376;53.544;10.226;2022-10-01T05:11:39;11.60;99.90
4725;DHT22;2376;53.544;10.226;2022-10-01T05:14:05;11.50;99.90
4725;DHT22;2376;53.544;10.226;2022-10-01T05:16:33;11.50;99.90
4725;DHT22;2376;53.544;10.226;2022-10-01T05:18:59;11.50;99.90
4725;DHT22;2376;53.544;10.226;2022-10-01T05:21:27;11.50;99.90
4725;DHT22;2376;53.544;10.226;2022-10-01T05:23:54;11.50;99.90
4725;DHT22;2376;53.544;10.226;2022-10-01T05:26:20;11.40;99.90
4725;DHT22;2376;53.544;10.226;2022-10-01T05:28:47;11.40;99.90
4725;DHT22;2376;53.544;10.226;2022-10-01T05:31:15;11.40;99.90
4725;DHT22;2376;53.544;10.226;2022-10-01T05:33:42;11.40;99.90
4725;DHT22;2376;53.544;10.226;2022-10-01T05:36:09;11.40;99.90
4725;DHT22;2376;53.544;10.226;2022-10-01T05:38:37;11.40;99.90
4725;DHT22;2376;53.544;10.226;2022-10-01T05:41:04;11.40;99.90
4725;DHT22;2376;53.544;10.226;2022-10-01T05:43:31;11.40;99.90
4725;DHT22;2376;53.544;10.226;2022-10-01T05:45:59;11.40;99.90
4725;DHT22;2376;53.544;10.226;2022-10-01T05:48:26;11.40;99.90
4725;DHT22;2376;53.544;10.226;2022-10-01T05:50:53;11.40;99.90
4725;DHT22;2376;53.544;10.226;2022-10-01T05:53:20;11.40;99.90
4725;DHT22;2376;53.544;10.226;2022-10-01T05:55:49;11.40;99.90
4725;DHT22;2376;53.544;10.226;2022-10-01T05:58:16;11.40;99.90
4725;DHT22;2376;53.544;10.226;2022-10-01T06:00:42;11.40;99.90
4725;DHT22;2376;53.544;10.226;2022-10-01T06:03:11;11.30;99.90
4725;DHT22;2376;53.544;10.226;2022-10-01T06:05:38;11.30;99.90
4725;DHT22;2376;53.544;10.226;2022-10-01T06:08:05;11.30;99.90
4725;DHT22;2376;53.544;10.226;2022-10-01T06:10:34;11.30;99.90
4725;DHT22;2376;53.544;10.226;2022-10-01T06:13:03;11.40;99.90
4725;DHT22;2376;53.544;10.226;2022-10-01T06:15:32;11.40;99.90
4725;DHT22;2376;53.544;10.226;2022-10-01T06:18:01;11.30;99.90
4725;DHT22;2376;53.544;10.226;2022-10-01T06:20:28;11.30;99.90
4725;DHT22;2376;53.544;10.226;2022-10-01T06:22:56;11.30;99.90
4725;DHT22;2376;53.544;10.226;2022-10-01T06:25:23;11.30;99.90
4725;DHT22;2376;53.544;10.226;2022-10-01T06:27:51;11.30;99.90
4725;DHT22;2376;53.544;10.226;2022-10-01T06:30:19;11.30;99.90
4725;DHT22;2376;53.544;10.226;2022-10-01T06:32:46;11.30;99.90
4725;DHT22;2376;53.544;10.226;2022-10-01T06:35:13;11.30;99.90
4725;DHT22;2376;53.544;10.226;2022-10-01T06:37:40;11.30;99.90
4725;DHT22;2376;53.544;10.226;2022-10-01T06:40:07;11.30;99.90
4725;DHT22;2376;53.544;10.226;2022-10-01T06:42:34;11.30;99.90
4725;DHT22;2376;53.544;10.226;2022-10-01T06:45:01;11.30;99.90
4725;DHT22;2376;53.544;10.226;2022-10-01T06:47:29;11.30;99.90
4725;DHT22;2376;53.544;10.226;2022-10-01T06:49:55;11.30;99.90
4725;DHT22;2376;53.544;10.226;2022-10-01T06:52:23;11.30;99.90
4725;DHT22;2376;53.544;10.226;2022-10-01T06:55:08;11.30;99.90
4725;DHT22;2376;53.544;10.226;2022-10-01T06:57:34;11.30;99.90
4725;DHT22;2376;53.544;10.226;2022-10-01T07:00:01;11.30;99.90
4725;DHT22;2376;53.544;10.226;2022-10-01T07:02:29;11.30;99.90
4725;DHT22;2376;53.544;10.226;2022-10-01T07:04:57;11.30;99.90
4725;DHT22;2376;53.544;10.226;2022-10-01T07:07:28;11.30;99.90
4725;DHT22;2376;53.544;10.226;2022-10-01T07:09:55;11.20;99.90
4725;DHT22;2376;53.544;10.226;2022-10-01T07:12:22;11.30;99.90
4725;DHT22;2376;53.544;10.226;2022-10-01T07:14:48;11.30;99.90
4725;DHT22;2376;53.544;10.226;2022-10-01T07:17:15;11.30;99.90
4725;DHT22;2376;53.544;10.226;2022-10-01T07:19:43;11.30;99.90
4725;DHT22;2376;53.544;10.226;2022-10-01T07:22:10;11.30;99.90
4725;DHT22;2376;53.544;10.226;2022-10-01T07:24:36;11.30;99.90
4725;DHT22;2376;53.544;10.226;2022-10-01T07:27:04;11.30;99.90
4725;DHT22;2376;53.544;10.226;2022-10-01T07:29:31;11.30;99.90
4725;DHT22;2376;53.544;10.226;2022-10-01T07:31:59;11.30;99.90
4725;DHT22;2376;53.544;10.226;2022-10-01T07:34:26;11.30;99.90
4725;DHT22;2376;53.544;10.226;2022-10-01T07:36:56;11.30;99.90
4725;DHT22;2376;53.544;10.226;2022-10-01T07:39:23;11.30;99.90
4725;DHT22;2376;53.544;10.226;2022-10-01T07:41:50;11.30;99.90
4725;DHT22;2376;53.544;10.226;2022-10-01T07:44:17;11.40;99.90
4725;DHT22;2376;53.544;10.226;2022-10-01T07:46:44;11.40;99.90
4725;DHT22;2376;53.544;10.226;2022-10-01T07:49:12;11.30;99.90
4725;DHT22;2376;53.544;10.226;2022-10-01T07:51:39;11.30;99.90
4725;DHT22;2376;53.544;10.226;2022-10-01T07:54:09;11.40;99.90
4725;DHT22;2376;53.544;10.226;2022-10-01T07:56:36;11.40;99.90
4725;DHT22;2376;53.544;10.226;2022-10-01T07:59:03;11.40;99.90
4725;DHT22;2376;53.544;10.226;2022-10-01T08:01:29;11.40;99.90
4725;DHT22;2376;53.544;10.226;2022-10-01T08:03:57;11.40;99.90
4725;DHT22;2376;53.544;10.226;2022-10-01T08:06:23;11.40;99.90
4725;DHT22;2376;53.544;10.226;2022-10-01T08:08:50;11.40;99.90
4725;DHT22;2376;53.544;10.226;2022-10-01T08:11:18;11.50;99.90
4725;DHT22;2376;53.544;10.226;2022-10-01T08:13:44;11.40;99.90
4725;DHT22;2376;53.544;10.226;2022-10-01T08:16:11;11.40;99.90
4725;DHT22;2376;53.544;10.226;2022-10-01T08:18:39;11.50;99.90
4725;DHT22;2376;53.544;10.226;2022-10-01T08:21:06;11.50;99.90
4725;DHT22;2376;53.544;10.226;2022-10-01T08:23:34;11.50;99.90
4725;DHT22;2376;53.544;10.226;2022-10-01T08:26:04;11.50;99.90
4725;DHT22;2376;53.544;10.226;2022-10-01T08:28:32;11.40;99.90
4725;DHT22;2376;53.544;10.226;2022-10-01T08:31:03;11.40;99.90
4725;DHT22;2376;53.544;10.226;2022-10-01T08:33:32;11.40;99.90
4725;DHT22;2376;53.544;10.226;2022-10-01T08:36:00;11.30;99.90
4725;DHT22;2376;53.544;10.226;2022-10-01T08:38:27;11.40;99.90
4725;DHT22;2376;53.544;10.226;2022-10-01T08:40:54;11.40;99.90
4725;DHT22;2376;53.544;10.226;2022-10-01T08:43:30;11.50;99.90
4725;DHT22;2376;53.544;10.226;2022-10-01T08:46:00;11.50;99.90
4725;DHT22;2376;53.544;10.226;2022-10-01T08:48:39;11.50;99.90
4725;DHT22;2376;53.544;10.226;2022-10-01T08:51:10;11.60;99.90
4725;DHT22;2376;53.544;10.226;2022-10-01T08:53:43;11.60;99.90
4725;DHT22;2376;53.544;10.226;2022-10-01T08:56:17;11.50;99.90
4725;DHT22;2376;53.544;10.226;2022-10-01T08:58:49;11.50;99.90
4725;DHT22;2376;53.544;10.226;2022-10-01T09:01:19;11.50;99.90
4725;DHT22;2376;53.544;10.226;2022-10-01T09:03:47;11.60;99.90
4725;DHT22;2376;53.544;10.226;2022-10-01T09:06:18;11.70;99.90
4725;DHT22;2376;53.544;10.226;2022-10-01T09:08:57;11.60;99.90
4725;DHT22;2376;53.544;10.226;2022-10-01T09:11:48;11.60;99.90
4725;DHT22;2376;53.544;10.226;2022-10-01T09:14:35;11.60;99.90
4725;DHT22;2376;53.544;10.226;2022-10-01T09:17:13;11.60;99.90
4725;DHT22;2376;53.544;10.226;2022-10-01T09:19:58;11.60;99.90
4725;DHT22;2376;53.544;10.226;2022-10-01T09:22:33;11.70;99.90
4725;DHT22;2376;53.544;10.226;2022-10-01T09:25:11;11.70;99.90
4725;DHT22;2376;53.544;10.226;2022-10-01T09:27:39;11.60;99.90
4725;DHT22;2376;53.544;10.226;2022-10-01T09:30:10;11.70;99.90
4725;DHT22;2376;53.544;10.226;2022-10-01T09:32:42;11.70;99.90
4725;DHT22;2376;53.544;10.226;2022-10-01T09:35:19;11.60;99.90
4725;DHT22;2376;53.544;10.226;2022-10-01T09:37:54;11.70;99.90
4725;DHT22;2376;53.544;10.226;2022-10-01T09:40:26;11.60;99.90
4725;DHT22;2376;53.544;10.226;2022-10-01T09:42:55;11.70;99.90
4725;DHT22;2376;53.544;10.226;2022-10-01T09:45:22;11.60;99.90
4725;DHT22;2376;53.544;10.226;2022-10-01T09:47:53;11.70;99.90
4725;DHT22;2376;53.544;10.226;2022-10-01T09:50:30;11.70;99.90
4725;DHT22;2376;53.544;10.226;2022-10-01T09:52:59;11.70;99.90
4725;DHT22;2376;53.544;10.226;2022-10-01T09:55:31;11.80;99.90
4725;DHT22;2376;53.544;10.226;2022-10-01T09:58:03;11.80;99.90
4725;DHT22;2376;53.544;10.226;2022-10-01T10:00:31;11.80;99.90
4725;DHT22;2376;53.544;10.226;2022-10-01T10:02:59;11.80;99.90
4725;DHT22;2376;53.544;10.226;2022-10-01T10:05:27;11.90;99.90
4725;DHT22;2376;53.544;10.226;2022-10-01T10:07:57;11.90;99.90
4725;DHT22;2376;53.544;10.226;2022-10-01T10:10:28;11.90;99.90
4725;DHT22;2376;53.544;10.226;2022-10-01T10:12:58;12.00;99.90
4725;DHT22;2376;53.544;10.226;2022-10-01T10:15:27;12.00;99.90
4725;DHT22;2376;53.544;10.226;2022-10-01T10:18:09;12.00;99.90
4725;DHT22;2376;53.544;10.226;2022-10-01T10:20:39;12.10;99.90
4725;DHT22;2376;53.544;10.226;2022-10-01T10:23:10;12.20;99.90
4725;DHT22;2376;53.544;10.226;2022-10-01T10:25:39;12.20;99.90
4725;DHT22;2376;53.544;10.226;2022-10-01T10:28:17;12.30;99.90
4725;DHT22;2376;53.544;10.226;2022-10-01T10:30:45;12.30;99.90
4725;DHT22;2376;53.544;10.226;2022-10-01T10:33:13;12.40;99.90
4725;DHT22;2376;53.544;10.226;2022-10-01T10:35:40;12.40;99.90
4725;DHT22;2376;53.544;10.226;2022-10-01T10:38:15;12.50;99.90
4725;DHT22;2376;53.544;10.226;2022-10-01T10:40:44;12.60;99.90
4725;DHT22;2376;53.544;10.226;2022-10-01T10:43:15;12.60;99.90
4725;DHT22;2376;53.544;10.226;2022-10-01T10:45:44;12.60;99.90
4725;DHT22;2376;53.544;10.226;2022-10-01T10:48:14;12.70;99.90
4725;DHT22;2376;53.544;10.226;2022-10-01T10:50:44;12.70;99.90
4725;DHT22;2376;53.544;10.226;2022-10-01T10:53:17;12.80;99.90
4725;DHT22;2376;53.544;10.226;2022-10-01T10:55:57;12.90;99.90
4725;DHT22;2376;53.544;10.226;2022-10-01T10:58:26;12.90;99.90
4725;DHT22;2376;53.544;10.226;2022-10-01T11:00:55;13.00;99.90
4725;DHT22;2376;53.544;10.226;2022-10-01T11:03:26;13.10;99.90
4725;DHT22;2376;53.544;10.226;2022-10-01T11:05:56;13.10;99.90
4725;DHT22;2376;53.544;10.226;2022-10-01T11:08:26;13.30;99.90
4725;DHT22;2376;53.544;10.226;2022-10-01T11:11:04;13.20;99.90
4725;DHT22;2376;53.544;10.226;2022-10-01T11:13:44;13.30;99.90
4725;DHT22;2376;53.544;10.226;2022-10-01T11:16:38;13.50;99.90
4725;DHT22;2376;53.544;10.226;2022-10-01T11:19:31;13.50;99.90
4725;DHT22;2376;53.544;10.226;2022-10-01T11:22:10;13.60;99.90
4725;DHT22;2376;53.544;10.226;2022-10-01T11:24:58;13.70;99.90
4725;DHT22;2376;53.544;10.226;2022-10-01T11:27:33;13.80;99.90
4725;DHT22;2376;53.544;10.226;2022-10-01T11:30:05;14.10;99.90
4725;DHT22;2376;53.544;10.226;2022-10-01T11:32:37;14.20;99.90
4725;DHT22;2376;53.544;10.226;2022-10-01T11:35:20;14.20;99.90
4725;DHT22;2376;53.544;10.226;2022-10-01T11:38:04;14.30;99.90
4725;DHT22;2376;53.544;10.226;2022-10-01T11:40:40;14.30;99.90
4725;DHT22;2376;53.544;10.226;2022-10-01T11:43:14;14.50;99.90
4725;DHT22;2376;53.544;10.226;2022-10-01T11:45:47;14.60;99.90
4725;DHT22;2376;53.544;10.226;2022-10-01T11:48:18;14.90;99.90
4725;DHT22;2376;53.544;10.226;2022-10-01T11:50:53;15.00;99.90
4725;DHT22;2376;53.544;10.226;2022-10-01T11:53:27;15.10;99.90
4725;DHT22;2376;53.544;10.226;2022-10-01T11:55:59;15.30;99.90
4725;DHT22;2376;53.544;10.226;2022-10-01T11:58:49;15.10;99.90
4725;DHT22;2376;53.544;10.226;2022-10-01T12:01:23;15.00;99.90
4725;DHT22;2376;53.544;10.226;2022-10-01T12:04:00;15.10;99.90
4725;DHT22;2376;53.544;10.226;2022-10-01T12:06:32;15.00;99.90
4725;DHT22;2376;53.544;10.226;2022-10-01T12:09:04;15.10;99.90
4725;DHT22;2376;53.544;10.226;2022-10-01T12:11:36;15.10;99.90
4725;DHT22;2376;53.544;10.226;2022-10-01T12:14:09;15.00;99.90
4725;DHT22;2376;53.544;10.226;2022-10-01T12:16:42;14.90;99.90
4725;DHT22;2376;53.544;10.226;2022-10-01T12:19:13;15.10;99.90
4725;DHT22;2376;53.544;10.226;2022-10-01T12:21:47;15.10;99.90
4725;DHT22;2376;53.544;10.226;2022-10-01T12:24:18;15.10;99.90
4725;DHT22;2376;53.544;10.226;2022-10-01T12:26:53;15.20;99.90
4725;DHT22;2376;53.544;10.226;2022-10-01T12:29:27;15.20;99.90
4725;DHT22;2376;53.544;10.226;2022-10-01T12:32:03;15.30;99.90
4725;DHT22;2376;53.544;10.226;2022-10-01T12:34:38;15.40;99.90
4725;DHT22;2376;53.544;10.226;2022-10-01T12:37:15;15.50;99.90
4725;DHT22;2376;53.544;10.226;2022-10-01T12:39:58;15.50;99.90
4725;DHT22;2376;53.544;10.226;2022-10-01T12:42:53;15.50;99.90
4725;DHT22;2376;53.544;10.226;2022-10-01T12:45:29;15.70;99.90
4725;DHT22;2376;53.544;10.226;2022-10-01T12:48:03;15.70;99.90
4725;DHT22;2376;53.544;10.226;2022-10-01T12:50:39;15.80;99.90
4725;DHT22;2376;53.544;10.226;2022-10-01T12:53:20;15.90;99.90
4725;DHT22;2376;53.544;10.226;2022-10-01T12:56:04;15.90;99.90
4725;DHT22;2376;53.544;10.226;2022-10-01T12:58:54;16.00;99.90
4725;DHT22;2376;53.544;10.226;2022-10-01T13:01:36;16.20;99.90
4725;DHT22;2376;53.544;10.226;2022-10-01T13:04:28;16.10;99.90
4725;DHT22;2376;53.544;10.226;2022-10-01T13:07:06;16.00;99.90
4725;DHT22;2376;53.544;10.226;2022-10-01T13:09:45;15.90;99.90
4725;DHT22;2376;53.544;10.226;2022-10-01T13:12:30;15.90;99.90
4725;DHT22;2376;53.544;10.226;2022-10-01T13:15:10;15.80;99.90
4725;DHT22;2376;53.544;10.226;2022-10-01T13:17:42;15.80;99.90
4725;DHT22;2376;53.544;10.226;2022-10-01T13:20:17;15.70;99.90
4725;DHT22;2376;53.544;10.226;2022-10-01T13:22:50;15.50;99.90
4725;DHT22;2376;53.544;10.226;2022-10-01T13:25:29;15.40;99.90
4725;DHT22;2376;53.544;10.226;2022-10-01T13:28:01;15.40;99.90
4725;DHT22;2376;53.544;10.226;2022-10-01T13:30:33;15.30;99.90
4725;DHT22;2376;53.544;10.226;2022-10-01T13:33:01;15.30;99.90
4725;DHT22;2376;53.544;10.226;2022-10-01T13:35:31;15.10;99.90
4725;DHT22;2376;53.544;10.226;2022-10-01T13:37:59;15.10;99.90
4725;DHT22;2376;53.544;10.226;2022-10-01T13:40:29;15.10;99.90
4725;DHT22;2376;53.544;10.226;2022-10-01T13:42:59;15.10;99.90
4725;DHT22;2376;53.544;10.226;2022-10-01T13:45:28;15.00;99.90
4725;DHT22;2376;53.544;10.226;2022-10-01T13:48:06;14.70;99.90
4725;DHT22;2376;53.544;10.226;2022-10-01T13:50:38;14.60;99.90
4725;DHT22;2376;53.544;10.226;2022-10-01T13:53:07;14.70;99.90
4725;DHT22;2376;53.544;10.226;2022-10-01T13:55:41;14.60;99.90
4725;DHT22;2376;53.544;10.226;2022-10-01T13:58:22;14.70;99.90
4725;DHT22;2376;53.544;10.226;2022-10-01T14:00:50;14.60;99.90
4725;DHT22;2376;53.544;10.226;2022-10-01T14:03:32;14.50;99.90
4725;DHT22;2376;53.544;10.226;2022-10-01T14:06:05;14.50;99.90
4725;DHT22;2376;53.544;10.226;2022-10-01T14:08:37;14.40;99.90
4725;DHT22;2376;53.544;10.226;2022-10-01T14:11:10;14.40;99.90
4725;DHT22;2376;53.544;10.226;2022-10-01T14:14:00;14.10;99.90
4725;DHT22;2376;53.544;10.226;2022-10-01T14:16:46;14.20;99.90
4725;DHT22;2376;53.544;10.226;2022-10-01T14:19:17;14.20;99.90
4725;DHT22;2376;53.544;10.226;2022-10-01T14:21:54;14.20;99.90
4725;DHT22;2376;53.544;10.226;2022-10-01T14:24:31;14.10;99.90
4725;DHT22;2376;53.544;10.226;2022-10-01T14:27:10;14.10;99.90
4725;DHT22;2376;53.544;10.226;2022-10-01T14:29:48;14.10;99.90
4725;DHT22;2376;53.544;10.226;2022-10-01T14:32:27;14.10;99.90
4725;DHT22;2376;53.544;10.226;2022-10-01T14:35:03;14.20;99.90
4725;DHT22;2376;53.544;10.226;2022-10-01T14:37:36;14.10;99.90
4725;DHT22;2376;53.544;10.226;2022-10-01T14:40:13;14.10;99.90
4725;DHT22;2376;53.544;10.226;2022-10-01T14:42:41;14.10;99.90
4725;DHT22;2376;53.544;10.226;2022-10-01T14:45:15;14.30;99.90
4725;DHT22;2376;53.544;10.226;2022-10-01T14:47:42;14.40;99.90
4725;DHT22;2376;53.544;10.226;2022-10-01T14:50:11;14.30;99.90
4725;DHT22;2376;53.544;10.226;2022-10-01T14:52:43;14.40;99.90
4725;DHT22;2376;53.544;10.226;2022-10-01T14:55:12;14.30;99.90
4725;DHT22;2376;53.544;10.226;2022-10-01T14:57:44;14.30;99.90
4725;DHT22;2376;53.544;10.226;2022-10-01T15:00:16;14.40;99.90
4725;DHT22;2376;53.544;10.226;2022-10-01T15:02:44;14.60;99.90
4725;DHT22;2376;53.544;10.226;2022-10-01T15:05:23;14.50;99.90
4725;DHT22;2376;53.544;10.226;2022-10-01T15:07:50;14.50;99.90
4725;DHT22;2376;53.544;10.226;2022-10-01T15:10:18;14.50;99.90
4725;DHT22;2376;53.544;10.226;2022-10-01T15:12:49;14.50;99.90
4725;DHT22;2376;53.544;10.226;2022-10-01T15:15:19;14.60;99.90
4725;DHT22;2376;53.544;10.226;2022-10-01T15:17:47;14.50;99.90
4725;DHT22;2376;53.544;10.226;2022-10-01T15:20:15;14.60;99.90
4725;DHT22;2376;53.544;10.226;2022-10-01T15:22:44;14.50;99.90
4725;DHT22;2376;53.544;10.226;2022-10-01T15:25:17;14.50;99.90
4725;DHT22;2376;53.544;10.226;2022-10-01T15:27:44;14.60;99.90
4725;DHT22;2376;53.544;10.226;2022-10-01T15:30:16;14.70;99.90
4725;DHT22;2376;53.544;10.226;2022-10-01T15:32:44;14.70;99.90
4725;DHT22;2376;53.544;10.226;2022-10-01T15:35:13;14.70;99.90
4725;DHT22;2376;53.544;10.226;2022-10-01T15:37:41;14.60;99.90
4725;DHT22;2376;53.544;10.226;2022-10-01T15:40:26;14.60;99.90
4725;DHT22;2376;53.544;10.226;2022-10-01T15:43:12;14.70;99.90
4725;DHT22;2376;53.544;10.226;2022-10-01T15:45:41;14.80;99.90
4725;DHT22;2376;53.544;10.226;2022-10-01T15:48:26;14.80;99.90
4725;DHT22;2376;53.544;10.226;2022-10-01T15:50:58;14.80;99.90
4725;DHT22;2376;53.544;10.226;2022-10-01T15:53:27;14.60;99.90
4725;DHT22;2376;53.544;10.226;2022-10-01T15:55:55;14.60;99.90
4725;DHT22;2376;53.544;10.226;2022-10-01T15:58:25;14.50;99.90
4725;DHT22;2376;53.544;10.226;2022-10-01T16:00:59;14.40;99.90
4725;DHT22;2376;53.544;10.226;2022-10-01T16:03:30;14.40;99.90
4725;DHT22;2376;53.544;10.226;2022-10-01T16:05:58;14.50;99.90
4725;DHT22;2376;53.544;10.226;2022-10-01T16:08:28;14.50;99.90
4725;DHT22;2376;53.544;10.226;2022-10-01T16:11:15;14.50;99.90